createdAt,value
2018-06-08T00:01:08.896Z,98379.00
2018-06-08T00:03:38.350Z,98371.00
2018-06-08T00:06:07.586Z,98379.00
2018-06-08T00:08:36.772Z,98377.00
2018-06-08T00:11:06.665Z,98375.00
2018-06-08T00:13:37.392Z,98374.00
2018-06-08T00:16:06.784Z,98365.00
2018-06-08T00:18:36.545Z,98360.00
2018-06-08T00:21:06.049Z,98356.00
2018-06-08T00:23:35.189Z,98349.00
2018-06-08T00:26:04.416Z,98344.00
2018-06-08T00:28:33.951Z,98341.00
2018-06-08T00:31:03.120Z,98338.00
2018-06-08T00:33:32.323Z,98341.00
2018-06-08T00:36:01.801Z,98344.00
2018-06-08T00:38:31.152Z,98343.00
2018-06-08T00:41:00.143Z,98341.00
2018-06-08T00:43:29.648Z,98341.00
2018-06-08T00:45:58.796Z,98335.00
2018-06-08T00:48:27.855Z,98327.00
2018-06-08T00:50:57.304Z,98326.00
2018-06-08T00:53:26.542Z,98326.00
2018-06-08T00:55:55.840Z,98327.00
2018-06-08T00:58:25.040Z,98320.00
2018-06-08T01:00:54.140Z,98319.00
2018-06-08T01:03:23.549Z,98325.00
2018-06-08T01:05:52.737Z,98316.00
2018-06-08T01:08:21.892Z,98317.00
2018-06-08T01:10:51.122Z,98308.00
2018-06-08T01:13:20.596Z,98312.00
2018-06-08T01:15:49.960Z,98311.00
2018-06-08T01:18:19.096Z,98306.00
2018-06-08T01:20:48.908Z,98312.00
2018-06-08T01:23:18.243Z,98314.00
2018-06-08T01:25:47.396Z,98315.00
2018-06-08T01:28:17.924Z,98311.00
2018-06-08T01:30:47.144Z,98312.00
2018-06-08T01:33:16.373Z,98317.00
2018-06-08T01:35:45.540Z,98321.00
2018-06-08T01:38:14.741Z,98326.00
2018-06-08T01:40:43.951Z,98328.00
2018-06-08T01:43:13.161Z,98323.00
2018-06-08T01:45:42.337Z,98332.00
2018-06-08T01:48:11.508Z,98332.00
2018-06-08T01:50:41.274Z,98333.00
2018-06-08T01:53:10.668Z,98335.00
2018-06-08T01:55:39.865Z,98340.00
2018-06-08T01:58:09.301Z,98336.00
2018-06-08T02:00:38.561Z,98341.00
2018-06-08T02:03:07.665Z,98339.00
2018-06-08T02:05:36.956Z,98333.00
2018-06-08T02:08:06.162Z,98333.00
2018-06-08T02:10:35.333Z,98329.00
2018-06-08T02:13:04.521Z,98326.00
2018-06-08T02:15:33.616Z,98326.00
2018-06-08T02:18:03.869Z,98331.00
2018-06-08T02:20:33.380Z,98330.00
2018-06-08T02:23:02.526Z,98333.00
2018-06-08T02:25:31.752Z,98327.00
2018-06-08T02:28:00.974Z,98325.00
2018-06-08T02:30:30.250Z,98325.00
2018-06-08T02:32:59.518Z,98323.00
2018-06-08T02:35:29.136Z,98317.00
2018-06-08T02:37:58.348Z,98316.00
2018-06-08T02:40:27.540Z,98319.00
2018-06-08T02:42:56.996Z,98315.00
2018-06-08T02:45:26.070Z,98321.00
2018-06-08T02:47:55.252Z,98318.00
2018-06-08T02:50:24.652Z,98317.00
2018-06-08T02:52:53.928Z,98318.00
2018-06-08T02:55:23.145Z,98322.00
2018-06-08T02:57:52.364Z,98322.00
2018-06-08T03:00:21.729Z,98320.00
2018-06-08T03:02:51.864Z,98320.00
2018-06-08T03:05:21.508Z,98321.00
2018-06-08T03:07:50.796Z,98318.00
2018-06-08T03:10:19.949Z,98314.00
2018-06-08T03:12:49.072Z,98318.00
2018-06-08T03:15:18.293Z,98314.00
2018-06-08T03:17:47.496Z,98312.00
2018-06-08T03:20:17.376Z,98318.00
2018-06-08T03:22:46.577Z,98316.00
2018-06-08T03:25:15.800Z,98318.00
2018-06-08T03:27:45.006Z,98324.00
2018-06-08T03:30:14.150Z,98332.00
2018-06-08T03:32:43.496Z,98338.00
2018-06-08T03:35:12.900Z,98334.00
2018-06-08T03:37:42.061Z,98342.00
2018-06-08T03:40:11.296Z,98339.00
2018-06-08T03:42:40.801Z,98336.00
2018-06-08T03:45:09.960Z,98342.00
2018-06-08T03:47:39.169Z,98343.00
2018-06-08T03:50:08.309Z,98341.00
2018-06-08T03:52:37.404Z,98341.00
2018-06-08T03:55:06.648Z,98348.00
2018-06-08T03:57:36.256Z,98346.00
2018-06-08T04:00:05.696Z,98351.00
2018-06-08T04:02:35.776Z,98356.00
2018-06-08T04:05:05.592Z,98354.00
2018-06-08T04:07:34.800Z,98360.00
2018-06-08T04:10:04.292Z,98364.00
2018-06-08T04:12:33.480Z,98363.00
2018-06-08T04:15:02.728Z,98364.00
2018-06-08T04:17:31.896Z,98362.00
2018-06-08T04:20:01.076Z,98367.00
2018-06-08T04:22:31.036Z,98361.00
2018-06-08T04:25:00.236Z,98358.00
2018-06-08T04:27:29.403Z,98358.00
2018-06-08T04:29:58.899Z,98357.00
2018-06-08T04:32:28.115Z,98357.00
2018-06-08T04:34:57.305Z,98354.00
2018-06-08T04:37:26.800Z,98353.00
2018-06-08T04:39:55.988Z,98353.00
2018-06-08T04:42:25.232Z,98353.00
2018-06-08T04:44:54.404Z,98352.00
2018-06-08T04:47:24.572Z,98348.00
2018-06-08T04:49:53.816Z,98344.00
2018-06-08T04:52:23.008Z,98350.00
2018-06-08T04:54:52.720Z,98358.00
2018-06-08T04:57:22.980Z,98359.00
2018-06-08T04:59:53.485Z,98357.00
2018-06-08T05:02:24.347Z,98360.00
2018-06-08T05:04:53.516Z,98360.00
2018-06-08T05:07:23.520Z,98358.00
2018-06-08T05:09:52.712Z,98350.00
2018-06-08T05:12:22.429Z,98356.00
2018-06-08T05:14:52.752Z,98360.00
2018-06-08T05:17:21.864Z,98365.00
2018-06-08T05:19:51.040Z,98362.00
2018-06-08T05:22:21.101Z,98369.00
2018-06-08T05:24:50.252Z,98367.00
2018-06-08T05:27:20.484Z,98366.00
2018-06-08T05:29:50.328Z,98369.00
2018-06-08T05:32:19.509Z,98370.00
2018-06-08T05:34:49.422Z,98370.00
2018-06-08T05:37:18.600Z,98365.00
2018-06-08T05:39:49.528Z,98368.00
2018-06-08T05:42:19.676Z,98366.00
2018-06-08T05:44:50.400Z,98364.00
2018-06-08T05:47:20.965Z,98358.00
2018-06-08T05:49:51.700Z,98360.00
2018-06-08T05:52:22.220Z,98353.00
2018-06-08T05:54:52.104Z,98356.00
2018-06-08T05:57:22.120Z,98354.00
2018-06-08T05:59:52.344Z,98352.00
2018-06-08T06:02:22.656Z,98352.00
2018-06-08T06:04:52.992Z,98357.00
2018-06-08T06:07:23.213Z,98360.00
2018-06-08T06:09:53.232Z,98359.00
2018-06-08T06:12:23.237Z,98364.00
2018-06-08T06:14:52.976Z,98362.00
2018-06-08T06:17:23.077Z,98364.00
2018-06-08T06:19:52.272Z,98362.00
2018-06-08T06:22:22.028Z,98368.00
2018-06-08T06:24:52.116Z,98369.00
2018-06-08T06:27:22.057Z,98370.00
2018-06-08T06:29:51.989Z,98370.00
2018-06-08T06:32:21.863Z,98368.00
2018-06-08T06:34:51.985Z,98374.00
2018-06-08T06:37:22.122Z,98381.00
2018-06-08T06:39:52.004Z,98384.00
2018-06-08T06:42:22.057Z,98384.00
2018-06-08T06:44:52.994Z,98383.00
2018-06-08T06:47:23.116Z,98384.00
2018-06-08T06:49:52.208Z,98388.00
2018-06-08T06:52:22.128Z,98386.00
2018-06-08T06:54:52.148Z,98387.00
2018-06-08T06:57:22.261Z,98391.00
2018-06-08T06:59:52.388Z,98388.00
2018-06-08T07:02:21.990Z,98388.00
2018-06-08T07:04:51.080Z,98382.00
2018-06-08T07:07:20.565Z,98388.00
2018-06-08T07:09:51.581Z,98385.00
2018-06-08T07:12:21.837Z,98384.00
2018-06-08T07:14:52.671Z,98389.00
2018-06-08T07:17:22.552Z,98392.00
2018-06-08T07:19:51.781Z,98395.00
2018-06-08T07:22:22.384Z,98388.00
2018-06-08T07:24:52.452Z,98392.00
2018-06-08T07:27:22.764Z,98389.00
2018-06-08T07:29:53.814Z,98393.00
2018-06-08T07:32:24.524Z,98393.00
2018-06-08T07:34:54.646Z,98390.00
2018-06-08T07:37:24.862Z,98383.00
2018-06-08T07:39:54.916Z,98382.00
2018-06-08T07:42:25.320Z,98380.00
2018-06-08T07:44:55.684Z,98377.00
2018-06-08T07:47:25.894Z,98371.00
2018-06-08T07:49:57.124Z,98369.00
2018-06-08T07:52:27.719Z,98369.00
2018-06-08T07:54:59.210Z,98356.00
2018-06-08T07:57:29.639Z,98359.00
2018-06-08T08:00:00.171Z,98360.00
2018-06-08T08:02:29.980Z,98364.00
2018-06-08T08:05:00.165Z,98363.00
2018-06-08T08:07:33.165Z,98377.00
2018-06-08T08:10:04.336Z,98370.00
2018-06-08T08:12:34.599Z,98362.00
2018-06-08T08:15:05.784Z,98362.00
2018-06-08T08:17:37.454Z,98360.00
2018-06-08T08:20:07.961Z,98353.00
2018-06-08T08:22:38.813Z,98343.00
2018-06-08T08:25:09.708Z,98341.00
2018-06-08T08:27:40.298Z,98345.00
2018-06-08T08:30:10.352Z,98337.00
2018-06-08T08:32:41.008Z,98331.00
2018-06-08T08:35:11.940Z,98325.00
2018-06-08T08:37:42.596Z,98317.00
2018-06-08T08:40:12.810Z,98308.00
2018-06-08T08:42:42.684Z,98304.00
2018-06-08T08:45:11.928Z,98299.00
2018-06-08T08:47:42.360Z,98308.00
2018-06-08T08:50:12.376Z,98305.00
2018-06-08T08:52:42.599Z,98309.00
2018-06-08T08:55:12.620Z,98301.00
2018-06-08T08:57:42.840Z,98301.00
2018-06-08T09:00:13.349Z,98298.00
2018-06-08T09:02:43.380Z,98296.00
2018-06-08T09:05:13.429Z,98295.00
2018-06-08T09:07:43.439Z,98292.00
2018-06-08T09:10:13.956Z,98290.00
2018-06-08T09:12:43.760Z,98282.00
2018-06-08T09:15:13.115Z,98284.00
2018-06-08T09:17:43.363Z,98282.00
2018-06-08T09:20:14.069Z,98271.00
2018-06-08T09:22:44.396Z,98261.00
2018-06-08T09:25:15.979Z,98257.00
2018-06-08T09:27:46.176Z,98241.00
2018-06-08T09:30:16.228Z,98241.00
2018-06-08T09:32:48.432Z,98238.00
2018-06-08T09:35:18.885Z,98238.00
2018-06-08T09:37:49.387Z,98233.00
2018-06-08T09:40:19.547Z,98228.00
2018-06-08T09:42:49.614Z,98220.00
2018-06-08T09:45:20.030Z,98216.00
2018-06-08T09:47:52.101Z,98215.00
2018-06-08T09:50:23.036Z,98221.00
2018-06-08T09:52:53.381Z,98227.00
2018-06-08T09:55:23.588Z,98222.00
2018-06-08T09:57:53.035Z,98210.00
2018-06-08T10:00:29.308Z,98201.00
2018-06-08T10:02:59.053Z,98191.00
2018-06-08T10:05:28.863Z,98193.00
2018-06-08T10:07:59.852Z,98204.00
2018-06-08T10:10:29.604Z,98206.00
2018-06-08T10:12:59.636Z,98207.00
2018-06-08T10:15:29.663Z,98214.00
2018-06-08T10:17:59.965Z,98213.00
2018-06-08T10:20:31.520Z,98216.00
2018-06-08T10:23:01.596Z,98216.00
2018-06-08T10:25:31.570Z,98213.00
2018-06-08T10:28:01.688Z,98219.00
2018-06-08T10:30:32.173Z,98222.00
2018-06-08T10:33:01.996Z,98218.00
2018-06-08T10:35:31.198Z,98226.00
2018-06-08T10:38:01.549Z,98234.00
2018-06-08T10:40:31.716Z,98229.00
2018-06-08T10:43:00.919Z,98235.00
2018-06-08T10:45:30.952Z,98227.00
2018-06-08T10:48:02.022Z,98227.00
2018-06-08T10:50:32.368Z,98232.00
2018-06-08T10:53:02.331Z,98230.00
2018-06-08T10:55:32.360Z,98224.00
2018-06-08T10:58:03.834Z,98213.00
2018-06-08T11:00:33.733Z,98222.00
2018-06-08T11:03:03.664Z,98212.00
2018-06-08T11:05:33.675Z,98207.00
2018-06-08T11:08:03.900Z,98198.00
2018-06-08T11:10:34.013Z,98200.00
2018-06-08T11:13:04.355Z,98202.00
2018-06-08T11:15:34.230Z,98201.00
2018-06-08T11:18:04.800Z,98196.00
2018-06-08T11:20:35.804Z,98197.00
2018-06-08T11:23:05.921Z,98186.00
2018-06-08T11:25:36.066Z,98180.00
2018-06-08T11:28:05.271Z,98184.00
2018-06-08T11:30:35.294Z,98191.00
2018-06-08T11:33:05.304Z,98191.00
2018-06-08T11:35:34.473Z,98178.00
2018-06-08T11:38:03.702Z,98178.00
2018-06-08T11:40:33.836Z,98179.00
2018-06-08T11:43:02.979Z,98188.00
2018-06-08T11:45:32.153Z,98184.00
2018-06-08T11:48:02.120Z,98180.00
2018-06-08T11:50:32.409Z,98171.00
2018-06-08T11:53:02.638Z,98164.00
2018-06-08T11:55:31.857Z,98154.00
2018-06-08T11:58:02.256Z,98149.00
2018-06-08T12:00:32.385Z,98143.00
2018-06-08T12:03:02.200Z,98140.00
2018-06-08T12:05:32.336Z,98134.00
2018-06-08T12:08:02.568Z,98131.00
2018-06-08T12:10:32.689Z,98130.00
2018-06-08T12:13:02.664Z,98117.00
2018-06-08T12:15:33.329Z,98118.00
2018-06-08T12:18:02.216Z,98117.00
2018-06-08T12:20:33.228Z,98122.00
2018-06-08T12:23:03.376Z,98123.00
2018-06-08T12:25:33.887Z,98143.00
2018-06-08T12:28:03.793Z,98148.00
2018-06-08T12:30:33.432Z,98154.00
2018-06-08T12:33:02.404Z,98150.00
2018-06-08T12:35:31.629Z,98166.00
2018-06-08T12:38:00.805Z,98173.00
2018-06-08T12:40:30.948Z,98182.00
2018-06-08T12:43:00.019Z,98184.00
2018-06-08T12:45:29.316Z,98191.00
2018-06-08T12:47:59.564Z,98190.00
2018-06-08T12:50:28.652Z,98187.00
2018-06-08T12:52:58.744Z,98189.00
2018-06-08T12:55:29.064Z,98191.00
2018-06-08T12:57:58.614Z,98191.00
2018-06-08T13:00:27.751Z,98186.00
2018-06-08T13:02:57.018Z,98184.00
2018-06-08T13:05:26.383Z,98191.00
2018-06-08T13:07:55.556Z,98186.00
2018-06-08T13:10:24.747Z,98182.00
2018-06-08T13:12:54.280Z,98174.00
2018-06-08T13:15:24.312Z,98178.00
2018-06-08T13:17:53.568Z,98187.00
2018-06-08T13:20:22.772Z,98192.00
2018-06-08T13:22:52.188Z,98192.00
2018-06-08T13:25:22.965Z,98189.00
2018-06-08T13:27:53.072Z,98191.00
2018-06-08T13:30:22.264Z,98191.00
2018-06-08T13:32:51.470Z,98188.00
2018-06-08T13:35:21.377Z,98188.00
2018-06-08T13:37:50.548Z,98183.00
2018-06-08T13:40:19.759Z,98188.00
2018-06-08T13:42:48.940Z,98188.00
2018-06-08T13:45:18.228Z,98191.00
2018-06-08T13:47:47.484Z,98186.00
2018-06-08T13:50:16.664Z,98175.00
2018-06-08T13:52:45.848Z,98171.00
2018-06-08T13:55:15.027Z,98172.00
2018-06-08T13:57:45.256Z,98175.00
2018-06-08T14:00:14.513Z,98181.00
2018-06-08T14:02:43.792Z,98180.00
2018-06-08T14:05:13.301Z,98173.00
2018-06-08T14:07:43.172Z,98167.00
2018-06-08T14:10:13.590Z,98159.00
2018-06-08T14:12:42.710Z,98159.00
2018-06-08T14:15:12.624Z,98153.00
2018-06-08T14:17:41.849Z,98153.00
2018-06-08T14:20:11.748Z,98150.00
2018-06-08T14:22:40.904Z,98149.00
2018-06-08T14:25:10.936Z,98142.00
2018-06-08T14:27:40.221Z,98138.00
2018-06-08T14:30:10.217Z,98134.00
2018-06-08T14:32:39.360Z,98126.00
2018-06-08T14:35:08.548Z,98115.00
2018-06-08T14:37:38.260Z,98110.00
2018-06-08T14:40:07.689Z,98111.00
2018-06-08T14:42:36.856Z,98109.00
2018-06-08T14:45:06.668Z,98104.00
2018-06-08T14:47:35.878Z,98102.00
2018-06-08T14:50:05.093Z,98103.00
2018-06-08T14:52:34.612Z,98107.00
2018-06-08T14:55:04.737Z,98108.00
2018-06-08T14:57:33.900Z,98104.00
2018-06-08T15:00:04.227Z,98105.00
2018-06-08T15:02:34.465Z,98107.00
2018-06-08T15:05:03.680Z,98108.00
2018-06-08T15:07:32.820Z,98110.00
2018-06-08T15:10:02.756Z,98109.00
2018-06-08T15:12:31.957Z,98102.00
2018-06-08T15:15:01.049Z,98103.00
2018-06-08T15:17:30.276Z,98101.00
2018-06-08T15:19:59.448Z,98100.00
2018-06-08T15:22:28.644Z,98103.00
2018-06-08T15:24:58.125Z,98101.00
2018-06-08T15:27:27.352Z,98099.00
2018-06-08T15:29:56.544Z,98098.00
2018-06-08T15:32:26.548Z,98095.00
2018-06-08T15:34:56.276Z,98093.00
2018-06-08T15:37:25.445Z,98092.00
2018-06-08T15:39:54.685Z,98086.00
2018-06-08T15:42:23.852Z,98087.00
2018-06-08T15:44:53.051Z,98087.00
2018-06-08T15:47:23.158Z,98093.00
2018-06-08T15:49:52.380Z,98088.00
2018-06-08T15:52:21.664Z,98094.00
2018-06-08T15:54:51.587Z,98086.00
2018-06-08T15:57:20.802Z,98089.00
2018-06-08T15:59:50.945Z,98088.00
2018-06-08T16:02:20.920Z,98079.00
2018-06-08T16:04:50.977Z,98078.00
2018-06-08T16:07:20.132Z,98071.00
2018-06-08T16:09:49.946Z,98066.00
2018-06-08T16:12:19.144Z,98064.00
2018-06-08T16:14:48.352Z,98069.00
2018-06-08T16:17:17.672Z,98065.00
2018-06-08T16:19:47.075Z,98059.00
2018-06-08T16:22:16.234Z,98058.00
2018-06-08T16:24:45.849Z,98055.00
2018-06-08T16:27:15.117Z,98056.00
2018-06-08T16:29:44.447Z,98058.00
2018-06-08T16:32:14.568Z,98056.00
2018-06-08T16:34:43.829Z,98057.00
2018-06-08T16:37:12.952Z,98053.00
2018-06-08T16:39:42.468Z,98053.00
2018-06-08T16:42:11.708Z,98048.00
2018-06-08T16:44:41.009Z,98041.00
2018-06-08T16:47:10.160Z,98039.00
2018-06-08T16:49:39.784Z,98036.00
2018-06-08T16:52:09.021Z,98033.00
2018-06-08T16:54:38.992Z,98038.00
2018-06-08T16:57:08.201Z,98037.00
2018-06-08T16:59:38.307Z,98039.00
2018-06-08T17:02:08.221Z,98047.00
2018-06-08T17:04:38.244Z,98057.00
2018-06-08T17:07:07.838Z,98066.00
2018-06-08T17:09:37.044Z,98071.00
2018-06-08T17:12:07.202Z,98075.00
2018-06-08T17:14:36.372Z,98074.00
2018-06-08T17:17:05.469Z,98087.00
2018-06-08T17:19:35.408Z,98090.00
2018-06-08T17:22:04.600Z,98101.00
2018-06-08T17:24:34.729Z,98104.00
2018-06-08T17:27:03.875Z,98108.00
2018-06-08T17:29:33.941Z,98116.00
2018-06-08T17:32:03.317Z,98125.00
2018-06-08T17:34:32.516Z,98130.00
2018-06-08T17:37:02.049Z,98130.00
2018-06-08T17:39:31.221Z,98133.00
2018-06-08T17:42:00.440Z,98133.00
2018-06-08T17:44:29.804Z,98136.00
2018-06-08T17:46:59.045Z,98142.00
2018-06-08T17:49:29.420Z,98139.00
2018-06-08T17:51:58.671Z,98145.00
2018-06-08T17:54:27.968Z,98146.00
2018-06-08T17:56:57.164Z,98150.00
2018-06-08T17:59:26.676Z,98152.00
2018-06-08T18:01:55.828Z,98151.00
2018-06-08T18:04:25.041Z,98149.00
2018-06-08T18:06:55.148Z,98146.00
2018-06-08T18:09:24.856Z,98143.00
2018-06-08T18:11:54.071Z,98141.00
2018-06-08T18:14:23.562Z,98145.00
2018-06-08T18:16:52.756Z,98144.00
2018-06-08T18:19:22.096Z,98145.00
2018-06-08T18:21:51.664Z,98140.00
2018-06-08T18:24:20.876Z,98136.00
2018-06-08T18:26:49.996Z,98133.00
2018-06-08T18:29:19.564Z,98140.00
2018-06-08T18:31:49.008Z,98144.00
2018-06-08T18:34:18.156Z,98144.00
2018-06-08T18:36:47.708Z,98147.00
2018-06-08T18:39:16.873Z,98148.00
2018-06-08T18:41:46.096Z,98156.00
2018-06-08T18:44:15.142Z,98161.00
2018-06-08T18:46:44.360Z,98161.00
2018-06-08T18:49:13.493Z,98155.00
2018-06-08T18:51:42.896Z,98151.00
2018-06-08T18:54:12.072Z,98142.00
2018-06-08T18:56:41.392Z,98147.00
2018-06-08T18:59:10.572Z,98148.00
2018-06-08T19:01:41.128Z,98145.00
2018-06-08T19:04:10.392Z,98158.00
2018-06-08T19:06:39.592Z,98162.00
2018-06-08T19:09:10.323Z,98159.00
2018-06-08T19:11:39.552Z,98160.00
2018-06-08T19:14:09.776Z,98154.00
2018-06-08T19:16:38.972Z,98155.00
2018-06-08T19:19:08.120Z,98151.00
2018-06-08T19:21:37.532Z,98145.00
2018-06-08T19:24:06.730Z,98145.00
2018-06-08T19:26:35.940Z,98146.00
2018-06-08T19:29:05.472Z,98148.00
2018-06-08T19:31:34.620Z,98145.00
2018-06-08T19:34:03.848Z,98146.00
2018-06-08T19:36:32.968Z,98152.00
2018-06-08T19:39:02.340Z,98161.00
2018-06-08T19:41:32.158Z,98165.00
2018-06-08T19:44:01.657Z,98167.00
2018-06-08T19:46:31.701Z,98173.00
2018-06-08T19:49:00.952Z,98178.00
2018-06-08T19:51:30.581Z,98183.00
2018-06-08T19:53:59.805Z,98184.00
2018-06-08T19:56:29.004Z,98183.00
2018-06-08T19:58:58.307Z,98187.00
2018-06-08T20:01:27.451Z,98187.00
2018-06-08T20:03:56.700Z,98194.00
2018-06-08T20:06:25.896Z,98189.00
2018-06-08T20:08:55.301Z,98196.00
2018-06-08T20:11:25.217Z,98194.00
2018-06-08T20:13:54.385Z,98191.00
2018-06-08T20:16:23.505Z,98200.00
2018-06-08T20:18:52.768Z,98205.00
2018-06-08T20:21:21.980Z,98206.00
2018-06-08T20:23:51.324Z,98213.00
2018-06-08T20:26:20.428Z,98217.00
2018-06-08T20:28:49.704Z,98217.00
2018-06-08T20:31:19.412Z,98211.00
2018-06-08T20:33:48.684Z,98214.00
2018-06-08T20:36:18.089Z,98214.00
2018-06-08T20:38:47.480Z,98219.00
2018-06-08T20:41:16.616Z,98221.00
2018-06-08T20:43:45.775Z,98221.00
2018-06-08T20:46:15.009Z,98218.00
2018-06-08T20:48:44.492Z,98209.00
2018-06-08T20:51:13.654Z,98212.00
2018-06-08T20:53:43.176Z,98209.00
2018-06-08T20:56:12.904Z,98211.00
2018-06-08T20:58:43.094Z,98216.00
2018-06-08T21:01:12.501Z,98221.00
2018-06-08T21:03:41.725Z,98219.00
2018-06-08T21:06:10.944Z,98215.00
2018-06-08T21:08:40.152Z,98216.00
2018-06-08T21:11:09.304Z,98218.00
2018-06-08T21:13:38.546Z,98225.00
2018-06-08T21:16:07.996Z,98226.00
2018-06-08T21:18:37.195Z,98230.00
2018-06-08T21:21:06.392Z,98234.00
2018-06-08T21:23:35.536Z,98230.00
2018-06-08T21:26:04.748Z,98228.00
2018-06-08T21:28:34.396Z,98224.00
2018-06-08T21:31:03.512Z,98225.00
2018-06-08T21:33:32.736Z,98226.00
2018-06-08T21:36:01.908Z,98224.00
2018-06-08T21:38:31.186Z,98219.00
2018-06-08T21:41:00.896Z,98220.00
2018-06-08T21:43:30.112Z,98221.00
2018-06-08T21:45:59.648Z,98216.00
2018-06-08T21:48:28.864Z,98207.00
2018-06-08T21:50:58.469Z,98213.00
2018-06-08T21:53:27.920Z,98220.00
2018-06-08T21:55:57.053Z,98216.00
2018-06-08T21:58:26.168Z,98211.00
2018-06-08T22:00:55.820Z,98214.00
2018-06-08T22:03:25.059Z,98211.00
2018-06-08T22:05:54.253Z,98208.00
2018-06-08T22:08:23.763Z,98210.00
2018-06-08T22:10:52.956Z,98211.00
2018-06-08T22:13:22.153Z,98213.00
2018-06-08T22:15:51.432Z,98210.00
2018-06-08T22:18:21.992Z,98206.00
2018-06-08T22:20:51.644Z,98208.00
2018-06-08T22:23:20.789Z,98208.00
2018-06-08T22:25:50.424Z,98202.00
2018-06-08T22:28:19.673Z,98203.00
2018-06-08T22:30:48.871Z,98199.00
2018-06-08T22:33:18.400Z,98203.00
2018-06-08T22:35:47.588Z,98206.00
2018-06-08T22:38:16.769Z,98214.00
2018-06-08T22:40:46.260Z,98216.00
2018-06-08T22:43:15.338Z,98212.00
2018-06-08T22:45:44.673Z,98209.00
2018-06-08T22:48:14.203Z,98212.00
2018-06-08T22:50:43.311Z,98217.00
2018-06-08T22:53:12.456Z,98217.00
2018-06-08T22:55:41.993Z,98218.00
2018-06-08T22:58:11.264Z,98216.00
2018-06-08T23:00:40.880Z,98216.00
2018-06-08T23:03:11.096Z,98212.00
2018-06-08T23:05:40.196Z,98209.00
2018-06-08T23:08:09.421Z,98212.00
2018-06-08T23:10:39.235Z,98212.00
2018-06-08T23:13:08.402Z,98214.00
2018-06-08T23:15:37.591Z,98209.00
2018-06-08T23:18:06.832Z,98202.00
2018-06-08T23:20:36.077Z,98196.00
2018-06-08T23:23:05.581Z,98191.00
2018-06-08T23:25:34.996Z,98191.00
2018-06-08T23:28:04.604Z,98196.00
2018-06-08T23:30:33.841Z,98200.00
2018-06-08T23:33:03.549Z,98196.00
2018-06-08T23:35:32.824Z,98199.00
2018-06-08T23:38:02.010Z,98205.00
2018-06-08T23:40:31.757Z,98205.00
2018-06-08T23:43:00.916Z,98201.00
2018-06-08T23:45:30.129Z,98201.00
2018-06-08T23:47:59.728Z,98192.00
2018-06-08T23:50:28.932Z,98188.00
2018-06-08T23:52:58.157Z,98189.00
2018-06-08T23:55:27.304Z,98196.00
2018-06-08T23:57:56.412Z,98199.00
